Airfield :
LOGIN :

Register | Disclaimer

   EN    FR    IT 

 










Legend :    VFR   Marginal VFR   IFR   Intensive IFR   Very Intensive IFR
Visi :
Ceiling :
>= 8 km
>= 3000ft
5 to 8 km
1000 to 3000 ft
1500m to 5 km
500 to 1000 ft
800 to 1500m
200 to 500 ft
< 800m
< 200 ft
Symbols :   Thunderstorms  Fog  Heavy snow  Heavy precipitations  Wind > 20 kt
SIGMETs :     Misc.  Thunderstorms  Icing  Turbulence  Mountain Waves  Volcanic Ashes







- Airport Elevation : 49 ft
- IATA code : GLZ


EHGR - Gilze-Rijen Airbase

CURRENT METAR :
  • 181525Z AUTO 06014KT 350V120 9999 NCD 22/05 Q1023 BLU

EXPIRED METARs :
  • 181455Z AUTO 08011KT 020V150 9999 NCD 22/06 Q1023 BLU
  • 181434Z AUTO 10012KT 020V160 9999 NCD 22/06 Q1023 BLU
  • 181355Z AUTO 09013KT 070V140 9999 NCD 22/05 Q1023 BLU 10012KT CAVOK
  • 181325Z AUTO 10013KT 060V140 9999 NCD 22/04 Q1023 BLU 10012KT CAVOK
  • 181255Z AUTO 10011KT 350V160 9999 NCD 22/05 Q1023 BLU 10012KT CAVOK
  • 181225Z AUTO 10011KT 060V150 9999 NCD 21/05 Q1024 BLU 10012KT CAVOK

TAF TAF EHGR
Valid from the 18 at 13:00 until the 19 at 01:00 UTC


181204Z 1813/1901 08010KT CAVOK
TEMPO 1813/1818 08012G22KT
No reported NOTAMs for that airfield.



MET'MAP, your aeronautical weather chart ! - Copyright ORBIFLY December 2007 - Disclaimer

ORBIFLY MET'MAP TEAM :

Programming & Development : Alexandra Zaïnal
Concept & Development : Baudouin d'Aumeries
Co-Development & Prog : Marc-Olivier Méhu
Technical & hardware support : Manuel Goepfert

Contact : metmap@orbifly.com




SOURCES & CREDITS :

   NOAA